createdAt,value
2022-08-14T00:01:03.901Z,7.88
2022-08-14T00:03:37.869Z,7.28
2022-08-14T00:06:25.635Z,7.30
2022-08-14T00:08:59.246Z,7.30
2022-08-14T00:11:31.227Z,7.13
2022-08-14T00:14:01.504Z,7.05
2022-08-14T00:16:41.305Z,7.35
2022-08-14T00:19:21.187Z,7.03
2022-08-14T00:21:51.025Z,7.47
2022-08-14T00:24:23.256Z,7.45
2022-08-14T00:26:56.595Z,7.22
2022-08-14T00:29:25.179Z,7.30
2022-08-14T00:31:56.277Z,7.05
2022-08-14T00:34:37.329Z,7.35
2022-08-14T00:37:13.770Z,6.78
2022-08-14T00:39:41.065Z,7.15
2022-08-14T00:42:21.474Z,7.90
2022-08-14T00:44:57.276Z,7.68
2022-08-14T00:47:24.874Z,6.97
2022-08-14T00:49:56.323Z,7.07
2022-08-14T00:52:25.263Z,7.45
2022-08-14T00:54:58.262Z,7.72
2022-08-14T00:57:28.251Z,7.28
2022-08-14T00:59:59.278Z,7.10
2022-08-14T01:02:31.897Z,7.28
2022-08-14T01:05:01.364Z,7.80
2022-08-14T01:07:38.991Z,7.78
2022-08-14T01:10:18.312Z,7.90
2022-08-14T01:12:47.869Z,7.65
2022-08-14T01:15:16.952Z,7.75
2022-08-14T01:18:02.902Z,8.70
2022-08-14T01:20:50.509Z,7.53
2022-08-14T01:23:18.850Z,8.02
2022-08-14T01:25:48.753Z,8.15
2022-08-14T01:28:46.831Z,7.90
2022-08-14T01:31:06.008Z,7.03
2022-08-14T01:33:59.157Z,7.97
2022-08-14T01:36:22.944Z,7.88
2022-08-14T01:38:52.130Z,8.05
2022-08-14T01:41:23.071Z,8.52
2022-08-14T01:44:01.549Z,9.02
2022-08-14T01:46:36.691Z,8.05
2022-08-14T01:49:08.096Z,8.32
2022-08-14T01:51:36.453Z,7.80
2022-08-14T01:54:14.413Z,8.77
2022-08-14T01:56:44.919Z,8.05
2022-08-14T01:59:37.623Z,8.70
2022-08-14T02:02:19.690Z,8.38
2022-08-14T02:04:57.350Z,9.30
2022-08-14T02:07:44.931Z,8.45
2022-08-14T02:10:15.849Z,9.68
2022-08-14T02:12:48.850Z,9.75
2022-08-14T02:15:22.075Z,10.30
2022-08-14T02:17:50.323Z,9.77
2022-08-14T02:20:23.368Z,9.10
2022-08-14T02:22:54.780Z,9.32
2022-08-14T02:25:22.764Z,9.07
2022-08-14T02:28:25.936Z,9.70
2022-08-14T02:30:38.457Z,9.35
2022-08-14T02:33:07.358Z,9.52
2022-08-14T02:35:40.801Z,9.10
2022-08-14T02:38:11.467Z,9.82
2022-08-14T02:40:40.555Z,9.25
2022-08-14T02:43:09.154Z,9.82
2022-08-14T02:45:38.247Z,9.75
2022-08-14T02:49:03.049Z,10.20
2022-08-14T02:51:00.516Z,9.45
2022-08-14T02:53:29.664Z,8.98
2022-08-14T02:56:02.948Z,8.68
2022-08-14T02:58:41.777Z,8.73
2022-08-14T03:01:09.937Z,9.45
2022-08-14T03:03:38.883Z,9.93
2022-08-14T03:06:08.860Z,8.70
2022-08-14T03:08:38.573Z,9.27
2022-08-14T03:11:09.415Z,9.32
2022-08-14T03:13:39.572Z,9.30
2022-08-14T03:16:19.763Z,8.68
2022-08-14T03:18:52.635Z,9.95
2022-08-14T03:21:23.378Z,9.98
2022-08-14T03:23:56.937Z,9.68
2022-08-14T03:26:30.402Z,9.57
2022-08-14T03:29:00.984Z,9.38
2022-08-14T03:31:30.131Z,9.10
2022-08-14T03:33:59.903Z,9.45
2022-08-14T03:37:51.512Z,10.43
2022-08-14T03:39:21.970Z,10.20
2022-08-14T03:41:56.196Z,10.25
2022-08-14T03:45:18.984Z,10.25
2022-08-14T03:47:15.385Z,9.75
2022-08-14T03:49:43.944Z,9.85
2022-08-14T03:52:37.561Z,9.95
2022-08-14T03:55:00.413Z,10.88
2022-08-14T03:57:32.340Z,10.38
2022-08-14T04:00:02.408Z,10.40
2022-08-14T04:02:37.164Z,10.82
2022-08-14T04:05:13.048Z,10.10
2022-08-14T04:08:00.495Z,10.65
2022-08-14T04:10:32.282Z,11.13
2022-08-14T04:13:03.489Z,10.35
2022-08-14T04:15:31.899Z,10.25
2022-08-14T04:18:19.105Z,9.52
2022-08-14T04:20:54.916Z,10.52
2022-08-14T04:23:32.611Z,10.18
2022-08-14T04:26:01.916Z,9.93
2022-08-14T04:29:06.970Z,9.85
2022-08-14T04:31:16.838Z,10.80
2022-08-14T04:33:43.959Z,9.98
2022-08-14T04:36:16.089Z,9.23
2022-08-14T04:39:03.197Z,10.40
2022-08-14T04:44:36.276Z,9.90
2022-08-14T04:47:23.692Z,10.35
2022-08-14T04:49:57.084Z,9.63
2022-08-14T04:52:25.072Z,10.68
2022-08-14T04:54:52.670Z,9.70
2022-08-14T04:57:21.977Z,9.38
2022-08-14T04:59:52.105Z,9.85
2022-08-14T05:02:19.292Z,10.63
2022-08-14T05:04:56.929Z,10.55
2022-08-14T05:07:46.964Z,10.65
2022-08-14T05:10:16.452Z,10.65
2022-08-14T05:13:24.313Z,9.80
2022-08-14T05:15:39.457Z,10.80
2022-08-14T05:18:17.613Z,10.90
2022-08-14T05:21:56.100Z,12.02
2022-08-14T05:23:53.820Z,11.50
2022-08-14T05:26:22.768Z,12.57
2022-08-14T05:28:53.238Z,12.07
2022-08-14T05:31:21.188Z,12.70
2022-08-14T05:33:54.670Z,14.18
2022-08-14T05:36:24.845Z,14.57
2022-08-14T05:38:53.333Z,15.27
2022-08-14T05:41:21.853Z,14.25
2022-08-14T05:43:49.452Z,14.60
2022-08-14T05:46:23.022Z,14.50
2022-08-14T05:48:53.300Z,12.90
2022-08-14T05:51:22.176Z,10.95
2022-08-14T05:54:01.788Z,11.05
2022-08-14T05:56:37.288Z,9.52
2022-08-14T05:59:05.546Z,10.27
2022-08-14T06:01:34.279Z,9.48
2022-08-14T06:04:04.475Z,8.73
2022-08-14T06:06:38.093Z,8.48
2022-08-14T06:09:09.934Z,8.90
2022-08-14T06:11:37.747Z,8.85
2022-08-14T06:14:12.495Z,8.90
2022-08-14T06:16:48.770Z,8.15
2022-08-14T06:19:18.828Z,8.68
2022-08-14T06:21:45.696Z,9.02
2022-08-14T06:24:18.841Z,8.57
2022-08-14T06:26:54.354Z,8.65
2022-08-14T06:29:34.567Z,9.23
2022-08-14T06:32:47.154Z,8.10
2022-08-14T06:35:03.056Z,8.15
2022-08-14T06:37:44.140Z,8.10
2022-08-14T06:40:26.265Z,8.40
2022-08-14T06:43:03.099Z,7.53
2022-08-14T06:45:31.519Z,7.38
2022-08-14T06:47:59.325Z,7.22
2022-08-14T06:50:30.194Z,7.32
2022-08-14T06:53:00.458Z,6.78
2022-08-14T06:55:28.390Z,7.25
2022-08-14T06:57:57.712Z,6.65
2022-08-14T07:00:30.840Z,7.00
2022-08-14T07:03:21.766Z,6.97
2022-08-14T07:05:55.359Z,6.72
2022-08-14T07:08:31.589Z,6.30
2022-08-14T07:11:04.438Z,6.15
2022-08-14T07:13:33.011Z,6.50
2022-08-14T07:16:00.816Z,6.65
2022-08-14T07:18:34.201Z,6.50
2022-08-14T07:21:02.970Z,6.30
2022-08-14T07:23:31.364Z,6.50
2022-08-14T07:26:00.147Z,6.20
2022-08-14T07:28:32.051Z,6.43
2022-08-14T07:31:05.033Z,6.03
2022-08-14T07:33:50.356Z,5.80
2022-08-14T07:36:26.957Z,5.97
2022-08-14T07:38:59.130Z,5.68
2022-08-14T07:41:33.493Z,6.53
2022-08-14T07:44:32.790Z,6.22
2022-08-14T07:46:49.567Z,6.07
2022-08-14T07:49:17.889Z,6.40
2022-08-14T07:51:49.621Z,7.25
2022-08-14T07:54:23.650Z,5.93
2022-08-14T07:57:06.624Z,5.78
2022-08-14T07:59:43.585Z,5.85
2022-08-14T08:02:18.902Z,6.35
2022-08-14T08:04:54.451Z,7.05
2022-08-14T08:07:29.478Z,6.35
2022-08-14T08:09:58.108Z,6.60
2022-08-14T08:12:30.802Z,6.57
2022-08-14T08:15:03.209Z,7.05
2022-08-14T08:17:42.793Z,6.93
2022-08-14T08:20:24.695Z,6.93
2022-08-14T08:22:56.976Z,6.88
2022-08-14T08:25:34.158Z,6.55
2022-08-14T08:28:22.345Z,6.70
2022-08-14T08:31:08.204Z,6.63
2022-08-14T08:33:36.994Z,6.28
2022-08-14T08:36:08.168Z,6.38
2022-08-14T08:39:18.308Z,6.57
2022-08-14T08:41:28.150Z,6.53
2022-08-14T08:44:05.580Z,6.40
2022-08-14T08:46:33.375Z,6.75
2022-08-14T08:51:36.358Z,6.97
2022-08-14T08:54:18.230Z,6.65
2022-08-14T08:56:48.712Z,6.35
2022-08-14T08:59:31.428Z,6.70
2022-08-14T09:02:10.382Z,6.72
2022-08-14T09:04:45.264Z,7.03
2022-08-14T09:07:26.947Z,6.88
2022-08-14T09:09:58.987Z,6.67
2022-08-14T09:12:33.487Z,7.22
2022-08-14T09:15:12.076Z,6.18
2022-08-14T09:17:42.191Z,6.85
2022-08-14T09:20:11.928Z,6.95
2022-08-14T09:22:42.585Z,6.57
2022-08-14T09:25:19.575Z,6.60
2022-08-14T09:27:50.164Z,6.72
2022-08-14T09:30:33.162Z,7.07
2022-08-14T09:33:10.891Z,6.68
2022-08-14T09:36:18.475Z,6.85
2022-08-14T09:38:59.071Z,6.57
2022-08-14T09:42:20.385Z,7.00
2022-08-14T09:44:57.627Z,6.85
2022-08-14T09:47:43.214Z,7.00
2022-08-14T09:50:28.460Z,6.30
2022-08-14T09:53:03.768Z,6.50
2022-08-14T09:55:36.852Z,7.05
2022-08-14T09:58:22.753Z,7.20
2022-08-14T10:01:00.572Z,7.30
2022-08-14T10:03:34.418Z,7.28
2022-08-14T10:06:29.572Z,6.95
2022-08-14T10:09:06.507Z,6.72
2022-08-14T10:11:43.407Z,6.75
2022-08-14T10:14:29.547Z,7.05
2022-08-14T10:17:02.632Z,6.88
2022-08-14T10:19:35.834Z,6.85
2022-08-14T10:23:15.507Z,6.78
2022-08-14T10:24:51.030Z,7.55
2022-08-14T10:27:24.422Z,7.47
2022-08-14T10:29:54.743Z,7.32
2022-08-14T10:32:28.335Z,7.10
2022-08-14T10:35:14.752Z,6.57
2022-08-14T10:37:50.399Z,6.78
2022-08-14T10:40:43.874Z,6.53
2022-08-14T10:43:23.330Z,6.78
2022-08-14T10:46:21.252Z,6.90
2022-08-14T10:49:00.295Z,6.53
2022-08-14T10:51:30.172Z,6.70
2022-08-14T10:54:35.348Z,6.72
2022-08-14T10:56:55.743Z,7.00
2022-08-14T10:59:23.540Z,6.50
2022-08-14T11:01:59.842Z,6.20
2022-08-14T11:04:30.547Z,6.57
2022-08-14T11:06:58.501Z,5.80
2022-08-14T11:09:26.551Z,5.95
2022-08-14T11:12:34.094Z,6.72
2022-08-14T11:14:59.028Z,6.28
2022-08-14T11:17:36.226Z,6.40
2022-08-14T11:20:06.401Z,6.15
2022-08-14T11:22:55.706Z,6.57
2022-08-14T11:25:43.495Z,6.25
2022-08-14T11:28:19.141Z,6.45
2022-08-14T11:30:53.473Z,6.15
2022-08-14T11:33:32.734Z,6.13
2022-08-14T11:36:01.856Z,6.45
2022-08-14T11:38:44.810Z,6.20
2022-08-14T11:41:14.141Z,6.30
2022-08-14T11:43:57.834Z,6.63
2022-08-14T11:46:30.479Z,6.45
2022-08-14T11:49:06.088Z,6.75
2022-08-14T11:51:42.866Z,6.10
2022-08-14T11:54:34.037Z,6.35
2022-08-14T11:57:02.403Z,5.80
2022-08-14T11:59:34.470Z,5.63
2022-08-14T12:03:00.281Z,6.50
2022-08-14T12:05:04.717Z,6.38
2022-08-14T12:07:36.832Z,6.30
2022-08-14T12:10:27.405Z,6.15
2022-08-14T12:12:57.536Z,6.50
2022-08-14T12:15:35.933Z,6.47
2022-08-14T12:18:03.137Z,6.70
2022-08-14T12:20:33.426Z,6.57
2022-08-14T12:23:05.194Z,6.35
2022-08-14T12:25:34.801Z,5.97
2022-08-14T12:28:10.285Z,6.10
2022-08-14T12:30:56.673Z,6.45
2022-08-14T12:33:33.775Z,6.10
2022-08-14T12:36:06.996Z,6.53
2022-08-14T12:38:44.024Z,6.32
2022-08-14T12:41:21.238Z,6.40
2022-08-14T12:44:00.123Z,6.30
2022-08-14T12:46:31.226Z,6.20
2022-08-14T12:49:09.062Z,6.07
2022-08-14T12:51:36.113Z,5.47
2022-08-14T12:54:27.356Z,5.60
2022-08-14T12:57:20.111Z,5.35
2022-08-14T12:59:49.516Z,5.28
2022-08-14T13:02:26.996Z,5.15
2022-08-14T13:04:59.284Z,4.75
2022-08-14T13:07:32.038Z,5.10
2022-08-14T13:10:12.786Z,4.95
2022-08-14T13:13:12.723Z,4.60
2022-08-14T13:15:40.515Z,4.80
2022-08-14T13:18:10.739Z,5.20
2022-08-14T13:20:44.166Z,5.03
2022-08-14T13:23:19.235Z,4.38
2022-08-14T13:25:58.870Z,5.07
2022-08-14T13:28:32.877Z,5.18
2022-08-14T13:31:11.345Z,4.97
2022-08-14T13:33:40.526Z,5.07
2022-08-14T13:36:10.998Z,5.60
2022-08-14T13:38:51.510Z,5.07
2022-08-14T13:41:28.097Z,5.35
2022-08-14T13:44:00.310Z,5.43
2022-08-14T13:46:27.879Z,5.72
2022-08-14T13:48:56.294Z,5.45
2022-08-14T13:51:29.815Z,6.00
2022-08-14T13:54:10.357Z,6.15
2022-08-14T13:56:40.498Z,5.57
2022-08-14T13:59:08.924Z,6.10
2022-08-14T14:01:42.910Z,5.95
2022-08-14T14:04:19.433Z,6.13
2022-08-14T14:06:49.781Z,6.07
2022-08-14T14:09:32.583Z,5.90
2022-08-14T14:12:49.022Z,6.00
2022-08-14T14:15:06.563Z,5.82
2022-08-14T14:17:38.904Z,6.20
2022-08-14T14:20:34.433Z,5.78
2022-08-14T14:23:02.883Z,5.90
2022-08-14T14:25:45.620Z,5.75
2022-08-14T14:28:23.988Z,5.38
2022-08-14T14:30:56.958Z,5.32
2022-08-14T14:36:20.868Z,5.32
2022-08-14T14:38:54.756Z,5.53
2022-08-14T14:41:24.248Z,5.28
2022-08-14T14:43:52.512Z,6.40
2022-08-14T14:46:36.875Z,5.70
2022-08-14T14:49:06.810Z,5.60
2022-08-14T14:51:41.119Z,5.97
2022-08-14T14:54:12.935Z,5.68
2022-08-14T14:56:52.377Z,5.82
2022-08-14T14:59:21.191Z,5.25
2022-08-14T15:01:53.271Z,5.57
2022-08-14T15:04:21.996Z,5.47
2022-08-14T15:06:50.012Z,5.75
2022-08-14T15:09:18.187Z,5.93
2022-08-14T15:11:47.045Z,6.10
2022-08-14T15:14:54.586Z,5.55
2022-08-14T15:17:02.638Z,5.13
2022-08-14T15:19:29.833Z,5.28
2022-08-14T15:21:57.903Z,4.90
2022-08-14T15:24:26.899Z,5.30
2022-08-14T15:26:59.752Z,5.45
2022-08-14T15:29:27.637Z,5.35
2022-08-14T15:31:54.880Z,5.28
2022-08-14T15:34:43.647Z,5.00
2022-08-14T15:37:12.789Z,5.20
2022-08-14T15:39:41.438Z,5.57
2022-08-14T15:42:16.345Z,5.55
2022-08-14T15:44:58.457Z,5.30
2022-08-14T15:47:30.077Z,5.45
2022-08-14T15:50:04.810Z,5.57
2022-08-14T15:52:45.220Z,5.17
2022-08-14T15:55:15.353Z,5.85
2022-08-14T15:58:02.359Z,5.68
2022-08-14T16:00:52.946Z,4.93
2022-08-14T16:03:25.346Z,5.93
2022-08-14T16:06:10.985Z,5.00
2022-08-14T16:08:44.304Z,5.55
2022-08-14T16:11:12.343Z,5.40
2022-08-14T16:13:44.676Z,5.18
2022-08-14T16:16:46.965Z,5.50
2022-08-14T16:19:10.045Z,5.90
2022-08-14T16:21:40.863Z,5.90
2022-08-14T16:24:29.166Z,5.88
2022-08-14T16:27:01.002Z,5.65
2022-08-14T16:29:30.324Z,5.95
2022-08-14T16:32:01.801Z,5.32
2022-08-14T16:34:50.999Z,5.85
2022-08-14T16:37:23.452Z,5.43
2022-08-14T16:39:59.412Z,5.85
2022-08-14T16:43:03.019Z,5.50
2022-08-14T16:45:18.765Z,6.00
2022-08-14T16:47:47.863Z,6.13
2022-08-14T16:50:43.297Z,5.82
2022-08-14T16:53:07.464Z,6.07
2022-08-14T16:55:53.505Z,5.70
2022-08-14T16:58:29.923Z,6.22
2022-08-14T17:01:24.660Z,7.53
2022-08-14T17:03:56.719Z,6.10
2022-08-14T17:06:38.400Z,6.20
2022-08-14T17:09:34.650Z,6.38
2022-08-14T17:12:07.152Z,6.03
2022-08-14T17:15:09.922Z,5.90
2022-08-14T17:17:40.691Z,5.85
2022-08-14T17:20:54.671Z,5.90
2022-08-14T17:23:00.074Z,5.75
2022-08-14T17:25:37.403Z,5.32
2022-08-14T17:28:52.622Z,5.78
2022-08-14T17:31:08.407Z,5.97
2022-08-14T17:36:24.591Z,5.95
2022-08-14T17:39:06.640Z,6.15
2022-08-14T17:44:45.791Z,6.13
2022-08-14T17:47:14.804Z,5.93
2022-08-14T17:49:47.453Z,5.57
2022-08-14T17:52:34.888Z,6.60
2022-08-14T17:55:06.676Z,6.30
2022-08-14T17:57:35.195Z,5.93
2022-08-14T18:00:03.427Z,6.15
2022-08-14T18:02:31.264Z,6.55
2022-08-14T18:05:02.763Z,6.13
2022-08-14T18:08:31.564Z,6.13
2022-08-14T18:10:51.926Z,6.68
2022-08-14T18:13:10.611Z,6.32
2022-08-14T18:15:41.294Z,6.05
2022-08-14T18:18:11.827Z,6.78
2022-08-14T18:21:42.512Z,6.65
2022-08-14T18:23:28.301Z,6.43
2022-08-14T18:26:00.500Z,6.75
2022-08-14T18:28:48.036Z,6.90
2022-08-14T18:31:22.778Z,6.68
2022-08-14T18:34:12.190Z,6.40
2022-08-14T18:36:54.387Z,6.93
2022-08-14T18:39:28.929Z,6.78
2022-08-14T18:42:23.548Z,6.57
2022-08-14T18:44:51.109Z,7.35
2022-08-14T18:47:22.110Z,6.75
2022-08-14T18:49:55.119Z,6.75
2022-08-14T18:52:34.907Z,6.85
2022-08-14T18:55:20.876Z,7.00
2022-08-14T18:57:58.057Z,6.68
2022-08-14T19:00:32.306Z,7.30
2022-08-14T19:03:01.284Z,6.35
2022-08-14T19:05:37.962Z,6.60
2022-08-14T19:08:18.483Z,7.05
2022-08-14T19:11:05.176Z,6.40
2022-08-14T19:13:48.596Z,7.22
2022-08-14T19:16:23.010Z,7.20
2022-08-14T19:19:00.194Z,6.90
2022-08-14T19:21:44.019Z,6.82
2022-08-14T19:24:29.572Z,7.13
2022-08-14T19:27:23.997Z,7.07
2022-08-14T19:30:19.602Z,7.60
2022-08-14T19:32:50.654Z,6.78
2022-08-14T19:35:24.410Z,6.47
2022-08-14T19:37:55.486Z,6.63
2022-08-14T19:40:34.459Z,7.10
2022-08-14T19:43:06.483Z,7.95
2022-08-14T19:45:34.124Z,7.55
2022-08-14T19:48:01.800Z,7.57
2022-08-14T19:50:39.082Z,7.18
2022-08-14T19:53:29.705Z,7.35
2022-08-14T19:56:09.773Z,7.43
2022-08-14T20:07:15.829Z,7.40
2022-08-14T20:11:07.363Z,7.63
2022-08-14T20:12:36.447Z,6.75
2022-08-14T20:15:25.775Z,6.70
2022-08-14T20:18:45.855Z,8.40
2022-08-14T20:21:05.141Z,7.22
2022-08-14T20:23:38.476Z,7.55
2022-08-14T20:26:31.609Z,7.05
2022-08-14T20:29:04.579Z,7.35
2022-08-14T20:31:37.039Z,7.22
2022-08-14T20:34:19.195Z,7.32
2022-08-14T20:37:17.418Z,7.47
2022-08-14T20:39:54.736Z,7.47
2022-08-14T20:42:43.579Z,6.95
2022-08-14T20:45:21.705Z,7.90
2022-08-14T20:48:07.440Z,7.55
2022-08-14T20:50:45.131Z,7.25
2022-08-14T20:53:32.667Z,7.60
2022-08-14T20:56:29.771Z,7.28
2022-08-14T20:58:57.792Z,6.80
2022-08-14T21:01:24.840Z,7.30
2022-08-14T21:04:01.723Z,6.93
2022-08-14T21:07:24.561Z,6.97
2022-08-14T21:10:03.270Z,7.15
2022-08-14T21:12:34.086Z,6.80
2022-08-14T21:15:07.094Z,7.07
2022-08-14T21:17:47.303Z,7.85
2022-08-14T21:20:26.525Z,7.00
2022-08-14T21:23:00.146Z,7.40
2022-08-14T21:25:28.924Z,6.93
2022-08-14T21:28:00.563Z,7.25
2022-08-14T21:30:41.879Z,6.95
2022-08-14T21:33:15.855Z,6.93
2022-08-14T21:35:47.005Z,6.88
2022-08-14T21:38:18.052Z,7.03
2022-08-14T21:40:48.687Z,6.93
2022-08-14T21:43:19.983Z,7.30
2022-08-14T21:45:58.772Z,6.80
2022-08-14T21:48:30.150Z,7.32
2022-08-14T21:51:53.330Z,7.13
2022-08-14T21:53:59.380Z,6.50
2022-08-14T21:56:37.332Z,7.20
2022-08-14T21:59:10.454Z,6.90
2022-08-14T22:02:00.400Z,7.60
2022-08-14T22:04:33.840Z,7.18
2022-08-14T22:07:07.300Z,6.55
2022-08-14T22:09:36.581Z,6.53
2022-08-14T22:12:09.073Z,6.70
2022-08-14T22:14:43.650Z,6.90
2022-08-14T22:17:16.296Z,6.70
2022-08-14T22:19:54.973Z,6.60
2022-08-14T22:22:26.617Z,6.53
2022-08-14T22:24:59.624Z,6.63
2022-08-14T22:27:32.159Z,6.25
2022-08-14T22:30:00.650Z,6.28
2022-08-14T22:32:56.995Z,5.75
2022-08-14T22:35:16.410Z,5.80
2022-08-14T22:37:45.015Z,6.07
2022-08-14T22:40:48.356Z,6.10
2022-08-14T22:43:07.920Z,5.57
2022-08-14T22:45:37.674Z,5.55
2022-08-14T22:48:10.840Z,6.32
2022-08-14T22:50:49.201Z,5.70
2022-08-14T22:53:21.814Z,5.85
2022-08-14T22:55:52.155Z,5.68
2022-08-14T22:58:30.028Z,5.68
2022-08-14T23:01:01.475Z,6.05
2022-08-14T23:03:34.162Z,5.75
2022-08-14T23:06:02.274Z,5.97
2022-08-14T23:08:58.942Z,5.85
2022-08-14T23:11:16.977Z,5.97
2022-08-14T23:13:46.046Z,5.63
2022-08-14T23:16:20.519Z,6.38
2022-08-14T23:18:53.772Z,5.40
2022-08-14T23:21:24.644Z,4.85
2022-08-14T23:23:54.910Z,4.97
2022-08-14T23:26:48.812Z,4.95
2022-08-14T23:29:17.901Z,5.43
2022-08-14T23:31:45.352Z,5.00
2022-08-14T23:34:20.881Z,5.20
2022-08-14T23:36:53.917Z,5.28
2022-08-14T23:39:30.329Z,5.40
2022-08-14T23:42:07.456Z,5.47
2022-08-14T23:44:37.854Z,5.47
2022-08-14T23:47:11.867Z,5.43
2022-08-14T23:50:03.139Z,6.00
2022-08-14T23:53:06.098Z,6.53
2022-08-14T23:55:26.705Z,6.00
2022-08-14T23:57:57.623Z,6.57
